createdAt,value
2023-02-15T00:00:16.021Z,85.59
2023-02-15T00:02:43.902Z,85.09
2023-02-15T00:05:14.333Z,85.41
2023-02-15T00:07:42.146Z,85.69
2023-02-15T00:10:10.342Z,86.14
2023-02-15T00:12:38.127Z,85.11
2023-02-15T00:15:06.143Z,85.46
2023-02-15T00:17:34.082Z,86.16
2023-02-15T00:20:02.008Z,85.64
2023-02-15T00:22:32.697Z,85.09
2023-02-15T00:25:00.838Z,84.99
2023-02-15T00:27:28.589Z,86.00
2023-02-15T00:29:56.383Z,86.05
2023-02-15T00:32:24.728Z,86.11
2023-02-15T00:34:52.633Z,85.94
2023-02-15T00:37:20.627Z,86.21
2023-02-15T00:39:51.107Z,85.72
2023-02-15T00:42:22.044Z,86.03
2023-02-15T00:44:49.762Z,87.28
2023-02-15T00:47:17.766Z,86.37
2023-02-15T00:49:45.586Z,86.50
2023-02-15T00:52:13.593Z,87.65
2023-02-15T00:54:41.382Z,86.63
2023-02-15T00:57:09.052Z,86.72
2023-02-15T00:59:36.733Z,85.76
2023-02-15T01:02:04.616Z,85.89
2023-02-15T01:04:38.329Z,85.07
2023-02-15T01:07:09.214Z,85.65
2023-02-15T01:09:37.148Z,85.23
2023-02-15T01:12:04.946Z,85.10
2023-02-15T01:14:33.094Z,84.85
2023-02-15T01:17:00.805Z,84.46
2023-02-15T01:19:33.151Z,84.08
2023-02-15T01:22:00.885Z,83.92
2023-02-15T01:24:28.837Z,83.96
2023-02-15T01:26:56.768Z,84.40
2023-02-15T01:29:24.449Z,84.67
2023-02-15T01:31:52.627Z,84.64
2023-02-15T01:34:20.443Z,84.65
2023-02-15T01:36:49.489Z,84.03
2023-02-15T01:39:17.182Z,84.78
2023-02-15T01:41:45.036Z,84.56
2023-02-15T01:44:46.859Z,83.90
2023-02-15T01:47:17.601Z,83.21
2023-02-15T01:49:45.612Z,83.57
2023-02-15T01:52:14.772Z,83.10
2023-02-15T01:54:43.294Z,82.88
2023-02-15T01:57:14.000Z,83.37
2023-02-15T01:59:42.116Z,84.21
2023-02-15T02:02:10.715Z,83.82
2023-02-15T02:04:45.106Z,83.43
2023-02-15T02:07:14.108Z,83.79
2023-02-15T02:09:41.838Z,83.87
2023-02-15T02:12:09.559Z,84.18
2023-02-15T02:14:37.812Z,84.50
2023-02-15T02:17:32.789Z,83.62
2023-02-15T02:20:21.810Z,83.93
2023-02-15T02:23:12.279Z,83.76
2023-02-15T02:26:18.428Z,81.85
2023-02-15T02:28:55.257Z,82.44
2023-02-15T02:31:45.674Z,82.52
2023-02-15T02:34:21.114Z,81.77
2023-02-15T02:36:53.869Z,82.16
2023-02-15T02:39:42.059Z,81.96
2023-02-15T02:42:18.372Z,82.25
2023-02-15T02:44:52.975Z,80.85
2023-02-15T02:47:25.445Z,79.13
2023-02-15T02:49:53.921Z,78.38
2023-02-15T02:52:42.154Z,80.18
2023-02-15T02:55:22.490Z,79.82
2023-02-15T02:58:04.929Z,79.45
2023-02-15T03:00:37.926Z,79.45
2023-02-15T03:03:09.017Z,79.88
2023-02-15T03:05:40.764Z,79.63
2023-02-15T03:08:11.089Z,78.80
2023-02-15T03:10:40.829Z,79.71
2023-02-15T03:13:08.997Z,79.92
2023-02-15T03:15:59.634Z,78.59
2023-02-15T03:18:33.135Z,79.28
2023-02-15T03:21:01.585Z,79.43
2023-02-15T03:23:30.334Z,79.97
2023-02-15T03:26:02.237Z,78.91
2023-02-15T03:28:43.972Z,79.52
2023-02-15T03:31:12.449Z,79.09
2023-02-15T03:33:45.513Z,78.89
2023-02-15T03:36:24.091Z,79.49
2023-02-15T03:39:06.456Z,79.61
2023-02-15T03:41:38.398Z,80.37
2023-02-15T03:44:20.160Z,80.64
2023-02-15T03:46:56.017Z,80.33
2023-02-15T03:49:30.245Z,79.68
2023-02-15T03:51:58.887Z,80.56
2023-02-15T03:54:43.899Z,80.36
2023-02-15T03:57:41.001Z,79.44
2023-02-15T04:00:43.650Z,79.76
2023-02-15T04:03:17.284Z,79.19
2023-02-15T04:05:45.750Z,79.64
2023-02-15T04:08:13.790Z,79.72
2023-02-15T04:10:59.225Z,79.34
2023-02-15T04:13:40.089Z,80.85
2023-02-15T04:16:08.670Z,79.59
2023-02-15T04:19:02.325Z,79.39
2023-02-15T04:21:50.021Z,79.40
2023-02-15T04:24:36.870Z,78.97
2023-02-15T04:27:05.507Z,78.79
2023-02-15T04:29:33.636Z,79.43
2023-02-15T04:32:01.922Z,79.56
2023-02-15T04:34:29.784Z,78.93
2023-02-15T04:36:57.756Z,78.79
2023-02-15T04:39:25.432Z,78.89
2023-02-15T04:41:53.252Z,78.48
2023-02-15T04:44:20.977Z,78.77
2023-02-15T04:46:48.697Z,78.77
2023-02-15T04:49:16.354Z,76.94
2023-02-15T04:51:44.395Z,77.05
2023-02-15T04:54:12.194Z,78.12
2023-02-15T04:56:40.509Z,77.69
2023-02-15T04:59:13.409Z,77.89
2023-02-15T05:01:42.763Z,77.73
2023-02-15T05:04:10.698Z,77.19
2023-02-15T05:06:39.108Z,77.25
2023-02-15T05:09:06.827Z,77.32
2023-02-15T05:11:34.710Z,76.58
2023-02-15T05:14:02.686Z,77.58
2023-02-15T05:16:30.541Z,78.81
2023-02-15T05:18:59.067Z,78.00
2023-02-15T05:21:31.539Z,76.91
2023-02-15T05:23:59.489Z,78.13
2023-02-15T05:26:45.663Z,78.19
2023-02-15T05:29:13.380Z,77.70
2023-02-15T05:31:41.304Z,78.03
2023-02-15T05:34:09.456Z,77.20
2023-02-15T05:36:37.224Z,78.18
2023-02-15T05:39:07.058Z,76.94
2023-02-15T05:41:34.854Z,76.76
2023-02-15T05:44:02.718Z,75.60
2023-02-15T05:46:30.642Z,75.00
2023-02-15T05:48:58.708Z,76.90
2023-02-15T05:51:26.457Z,77.39
2023-02-15T05:53:54.174Z,76.12
2023-02-15T05:56:22.524Z,76.11
2023-02-15T05:58:50.949Z,76.49
2023-02-15T06:01:19.414Z,75.71
2023-02-15T06:03:47.457Z,75.69
2023-02-15T06:06:16.040Z,76.12
2023-02-15T06:08:43.977Z,75.61
2023-02-15T06:11:12.067Z,74.83
2023-02-15T06:13:40.199Z,75.39
2023-02-15T06:16:08.142Z,74.48
2023-02-15T06:18:35.957Z,74.29
2023-02-15T06:21:03.805Z,73.40
2023-02-15T06:23:31.857Z,74.89
2023-02-15T06:25:59.864Z,74.74
2023-02-15T06:28:27.677Z,74.60
2023-02-15T06:30:55.417Z,74.48
2023-02-15T06:33:24.175Z,74.39
2023-02-15T06:35:52.000Z,73.26
2023-02-15T06:38:19.761Z,73.60
2023-02-15T06:40:47.764Z,73.89
2023-02-15T06:43:15.413Z,73.02
2023-02-15T06:45:43.446Z,73.48
2023-02-15T06:48:12.388Z,74.40
2023-02-15T06:50:40.084Z,73.76
2023-02-15T06:53:12.076Z,72.98
2023-02-15T06:55:39.954Z,72.07
2023-02-15T06:58:07.786Z,72.67
2023-02-15T07:00:35.629Z,72.38
2023-02-15T07:03:04.039Z,71.72
2023-02-15T07:05:34.361Z,72.02
2023-02-15T07:08:02.303Z,71.41
2023-02-15T07:10:30.397Z,71.60
2023-02-15T07:12:58.106Z,72.07
2023-02-15T07:15:26.477Z,71.92
2023-02-15T07:17:54.948Z,71.36
2023-02-15T07:20:23.577Z,71.76
2023-02-15T07:22:52.283Z,70.86
2023-02-15T07:25:20.222Z,71.31
2023-02-15T07:27:47.944Z,70.97
2023-02-15T07:30:17.208Z,71.36
2023-02-15T07:33:05.676Z,71.00
2023-02-15T07:35:36.114Z,70.93
2023-02-15T07:38:03.809Z,71.49
2023-02-15T07:40:31.732Z,71.32
2023-02-15T07:43:00.295Z,70.85
2023-02-15T07:45:28.279Z,71.81
2023-02-15T07:47:56.910Z,71.53
2023-02-15T07:50:24.678Z,70.92
2023-02-15T07:52:52.820Z,71.50
2023-02-15T07:55:20.731Z,71.71
2023-02-15T07:57:49.781Z,71.61
2023-02-15T08:00:18.828Z,70.71
2023-02-15T08:03:10.786Z,70.52
2023-02-15T08:05:38.867Z,70.45
2023-02-15T08:08:06.901Z,70.49
2023-02-15T08:10:53.796Z,70.55
2023-02-15T08:13:23.310Z,71.31
2023-02-15T08:15:56.227Z,70.44
2023-02-15T08:18:24.096Z,70.88
2023-02-15T08:20:52.268Z,71.55
2023-02-15T08:23:20.686Z,70.35
2023-02-15T08:25:48.441Z,71.25
2023-02-15T08:28:16.426Z,71.42
2023-02-15T08:30:44.454Z,71.79
2023-02-15T08:33:12.865Z,71.04
2023-02-15T08:35:40.946Z,70.40
2023-02-15T08:38:09.699Z,70.51
2023-02-15T08:40:39.243Z,70.36
2023-02-15T08:43:08.228Z,70.07
2023-02-15T08:45:37.079Z,71.78
2023-02-15T08:48:05.487Z,71.26
2023-02-15T08:50:35.071Z,70.94
2023-02-15T08:53:03.217Z,71.20
2023-02-15T08:55:31.037Z,72.26
2023-02-15T08:57:59.042Z,71.13
2023-02-15T09:00:27.127Z,71.20
2023-02-15T09:02:54.966Z,69.96
2023-02-15T09:05:23.049Z,70.96
2023-02-15T09:07:50.863Z,70.84
2023-02-15T09:10:18.988Z,69.72
2023-02-15T09:12:47.698Z,70.23
2023-02-15T09:15:19.831Z,69.02
2023-02-15T09:17:50.024Z,68.79
2023-02-15T09:20:17.981Z,69.21
2023-02-15T09:22:45.899Z,68.74
2023-02-15T09:25:14.789Z,67.93
2023-02-15T09:27:43.326Z,67.71
2023-02-15T09:30:12.402Z,68.11
2023-02-15T09:32:43.428Z,67.87
2023-02-15T09:35:13.361Z,67.72
2023-02-15T09:37:41.596Z,67.99
2023-02-15T09:40:09.665Z,69.48
2023-02-15T09:43:23.806Z,67.15
2023-02-15T09:46:13.787Z,67.34
2023-02-15T09:48:43.068Z,66.90
2023-02-15T09:51:18.104Z,67.03
2023-02-15T09:53:51.934Z,67.60
2023-02-15T09:56:39.970Z,66.63
2023-02-15T09:59:36.608Z,65.79
2023-02-15T10:02:07.322Z,67.22
2023-02-15T10:04:35.638Z,65.78
2023-02-15T10:07:28.249Z,66.12
2023-02-15T10:10:13.322Z,65.94
2023-02-15T10:13:14.942Z,65.06
2023-02-15T10:15:59.280Z,65.55
2023-02-15T10:18:49.978Z,66.03
2023-02-15T10:21:53.134Z,64.25
2023-02-15T10:24:42.633Z,64.90
2023-02-15T10:27:14.665Z,65.50
2023-02-15T10:30:08.710Z,66.44
2023-02-15T10:33:00.330Z,66.90
2023-02-15T10:35:39.364Z,66.06
2023-02-15T10:38:18.194Z,65.84
2023-02-15T10:41:08.211Z,66.66
2023-02-15T10:43:47.677Z,67.62
2023-02-15T10:46:41.461Z,67.03
2023-02-15T10:49:27.543Z,66.85
2023-02-15T10:52:04.129Z,67.29
2023-02-15T10:54:42.120Z,66.50
2023-02-15T10:57:19.693Z,66.52
2023-02-15T10:59:57.168Z,67.55
2023-02-15T11:02:47.933Z,66.03
2023-02-15T11:05:37.270Z,66.30
2023-02-15T11:08:06.413Z,67.22
2023-02-15T11:10:37.918Z,66.77
2023-02-15T11:13:18.230Z,66.37
2023-02-15T11:15:55.539Z,65.91
2023-02-15T11:18:25.930Z,65.55
2023-02-15T11:20:59.523Z,64.45
2023-02-15T11:23:27.455Z,64.15
2023-02-15T11:26:03.462Z,64.74
2023-02-15T11:28:48.142Z,63.93
2023-02-15T11:31:23.699Z,64.22
2023-02-15T11:33:58.478Z,64.69
2023-02-15T11:36:27.961Z,64.18
2023-02-15T11:38:59.571Z,63.36
2023-02-15T11:41:31.219Z,63.47
2023-02-15T11:44:09.192Z,64.67
2023-02-15T11:46:37.985Z,66.05
2023-02-15T11:49:32.760Z,64.41
2023-02-15T11:52:08.530Z,63.53
2023-02-15T11:54:37.783Z,63.95
2023-02-15T11:57:42.023Z,63.50
2023-02-15T12:00:14.275Z,62.28
2023-02-15T12:02:46.532Z,62.53
2023-02-15T12:05:15.292Z,61.76
2023-02-15T12:08:05.118Z,61.26
2023-02-15T12:10:39.532Z,61.70
2023-02-15T12:13:14.016Z,62.00
2023-02-15T12:15:47.693Z,61.15
2023-02-15T12:18:27.305Z,60.15
2023-02-15T12:20:55.301Z,60.55
2023-02-15T12:23:23.065Z,61.03
2023-02-15T12:25:55.606Z,61.13
2023-02-15T12:28:40.755Z,58.95
2023-02-15T12:31:24.537Z,58.84
2023-02-15T12:33:55.128Z,57.61
2023-02-15T12:36:29.145Z,56.00
2023-02-15T12:39:29.984Z,56.63
2023-02-15T12:42:05.144Z,56.10
2023-02-15T12:44:37.181Z,56.65
2023-02-15T12:47:18.800Z,57.76
2023-02-15T12:50:04.754Z,58.04
2023-02-15T12:52:32.904Z,58.51
2023-02-15T12:55:21.103Z,60.16
2023-02-15T12:57:49.039Z,60.08
2023-02-15T13:00:19.447Z,60.60
2023-02-15T13:02:54.677Z,62.07
2023-02-15T13:05:44.156Z,63.21
2023-02-15T13:08:23.315Z,62.61
2023-02-15T13:11:00.587Z,62.06
2023-02-15T13:13:33.002Z,62.63
2023-02-15T13:16:06.709Z,64.84
2023-02-15T13:18:47.567Z,64.85
2023-02-15T13:21:17.892Z,65.41
2023-02-15T13:23:49.902Z,65.33
2023-02-15T13:26:20.177Z,66.02
2023-02-15T13:28:50.085Z,65.58
2023-02-15T13:31:22.160Z,66.93
2023-02-15T13:34:02.916Z,66.09
2023-02-15T13:36:40.723Z,65.79
2023-02-15T13:39:26.187Z,66.89
2023-02-15T13:42:03.345Z,66.73
2023-02-15T13:44:40.501Z,65.77
2023-02-15T13:47:21.234Z,65.72
2023-02-15T13:50:14.186Z,64.49
2023-02-15T13:52:55.738Z,63.76
2023-02-15T13:55:42.539Z,63.44
2023-02-15T13:58:28.331Z,63.58
2023-02-15T14:01:05.251Z,63.88
2023-02-15T14:04:10.176Z,62.46
2023-02-15T14:07:10.879Z,59.96
2023-02-15T14:09:48.732Z,59.89
2023-02-15T14:12:31.681Z,60.16
2023-02-15T14:15:08.927Z,59.59
2023-02-15T14:17:53.546Z,59.62
2023-02-15T14:20:38.734Z,60.02
2023-02-15T14:23:12.783Z,60.44
2023-02-15T14:25:45.965Z,60.36
2023-02-15T14:28:24.695Z,60.79
2023-02-15T14:30:53.903Z,61.05
2023-02-15T14:33:41.797Z,60.52
2023-02-15T14:36:12.603Z,60.47
2023-02-15T14:38:58.213Z,60.85
2023-02-15T14:41:45.168Z,59.94
2023-02-15T14:44:17.454Z,61.14
2023-02-15T14:46:59.967Z,60.84
2023-02-15T14:49:29.105Z,61.62
2023-02-15T14:52:01.359Z,62.09
2023-02-15T14:54:34.403Z,63.15
2023-02-15T14:57:02.086Z,63.17
2023-02-15T14:59:59.527Z,62.44
2023-02-15T15:02:51.671Z,62.61
2023-02-15T15:09:26.993Z,62.85
2023-02-15T15:12:26.921Z,63.72
2023-02-15T15:14:56.701Z,63.61
2023-02-15T15:17:39.199Z,65.00
2023-02-15T15:20:08.534Z,64.69
2023-02-15T15:22:36.554Z,64.32
2023-02-15T15:25:11.912Z,65.92
2023-02-15T15:27:55.241Z,66.99
2023-02-15T15:30:24.928Z,67.53
2023-02-15T15:32:56.193Z,67.44
2023-02-15T15:35:45.589Z,67.54
2023-02-15T15:38:28.397Z,67.50
2023-02-15T15:41:15.186Z,67.68
2023-02-15T15:44:12.552Z,66.73
2023-02-15T15:46:58.406Z,67.54
2023-02-15T15:49:28.413Z,67.47
2023-02-15T15:51:56.108Z,66.96
2023-02-15T15:54:25.311Z,67.46
2023-02-15T15:57:05.655Z,67.71
2023-02-15T15:59:35.141Z,66.17
2023-02-15T16:02:09.110Z,66.28
2023-02-15T16:04:37.183Z,67.38
2023-02-15T16:07:19.619Z,66.87
2023-02-15T16:09:58.684Z,66.89
2023-02-15T16:12:30.649Z,67.00
2023-02-15T16:15:14.544Z,65.73
2023-02-15T16:17:44.200Z,66.04
2023-02-15T16:20:19.775Z,66.38
2023-02-15T16:22:48.371Z,66.52
2023-02-15T16:25:28.384Z,67.79
2023-02-15T16:27:56.288Z,66.94
2023-02-15T16:30:31.310Z,66.86
2023-02-15T16:33:10.601Z,66.84
2023-02-15T16:35:58.496Z,65.68
2023-02-15T16:38:52.403Z,65.80
2023-02-15T16:41:28.369Z,66.16
2023-02-15T16:44:02.569Z,66.71
2023-02-15T16:46:34.383Z,65.56
2023-02-15T16:49:05.443Z,65.38
2023-02-15T16:51:34.322Z,65.42
2023-02-15T16:54:07.229Z,65.48
2023-02-15T16:56:35.163Z,65.13
2023-02-15T16:59:02.812Z,64.66
2023-02-15T17:01:33.560Z,64.39
2023-02-15T17:04:23.221Z,63.91
2023-02-15T17:07:04.511Z,63.79
2023-02-15T17:09:33.657Z,64.42
2023-02-15T17:12:03.449Z,63.74
2023-02-15T17:14:32.332Z,64.79
2023-02-15T17:17:01.318Z,63.64
2023-02-15T17:19:34.983Z,63.01
2023-02-15T17:22:28.144Z,62.75
2023-02-15T17:25:00.450Z,62.25
2023-02-15T17:27:29.695Z,62.09
2023-02-15T17:30:05.651Z,62.26
2023-02-15T17:32:37.532Z,61.55
2023-02-15T17:35:21.526Z,62.01
2023-02-15T17:37:49.990Z,61.36
2023-02-15T17:40:20.007Z,61.44
2023-02-15T17:42:47.793Z,61.12
2023-02-15T17:45:16.049Z,61.41
2023-02-15T17:47:43.947Z,61.22
2023-02-15T17:50:38.053Z,61.59
2023-02-15T17:53:09.005Z,61.22
2023-02-15T17:55:39.215Z,61.22
2023-02-15T17:58:19.552Z,62.15
2023-02-15T18:01:11.871Z,62.25
2023-02-15T18:04:08.611Z,62.03
2023-02-15T18:06:56.764Z,62.08
2023-02-15T18:09:43.625Z,62.00
2023-02-15T18:12:31.358Z,62.80
2023-02-15T18:14:59.427Z,62.03
2023-02-15T18:17:34.902Z,62.24
2023-02-15T18:20:05.655Z,62.29
2023-02-15T18:22:33.422Z,62.65
2023-02-15T18:25:01.155Z,62.45
2023-02-15T18:27:29.002Z,62.65
2023-02-15T18:29:56.899Z,62.83
2023-02-15T18:32:34.300Z,63.58
2023-02-15T18:35:02.257Z,63.11
2023-02-15T18:37:58.909Z,62.84
2023-02-15T18:40:27.728Z,62.94
2023-02-15T18:42:57.249Z,64.06
2023-02-15T18:45:33.414Z,64.05
2023-02-15T18:48:01.204Z,63.82
2023-02-15T18:50:31.816Z,64.21
2023-02-15T18:52:59.928Z,64.48
2023-02-15T18:55:28.235Z,65.23
2023-02-15T18:57:57.001Z,64.79
2023-02-15T19:00:32.552Z,64.64
2023-02-15T19:03:02.117Z,64.50
2023-02-15T19:05:30.927Z,64.68
2023-02-15T19:07:59.795Z,64.85
2023-02-15T19:10:28.837Z,64.35
2023-02-15T19:12:56.506Z,64.75
2023-02-15T19:15:26.674Z,64.23
2023-02-15T19:17:54.636Z,65.06
2023-02-15T19:20:32.654Z,64.33
2023-02-15T19:23:01.603Z,65.21
2023-02-15T19:25:30.751Z,64.67
2023-02-15T19:27:58.973Z,65.29
2023-02-15T19:30:30.863Z,65.05
2023-02-15T19:32:58.960Z,65.84
2023-02-15T19:35:27.850Z,65.58
2023-02-15T19:38:00.434Z,66.52
2023-02-15T19:40:32.817Z,66.49
2023-02-15T19:43:00.482Z,65.88
2023-02-15T19:45:29.802Z,65.75
2023-02-15T19:47:57.493Z,65.64
2023-02-15T19:50:30.725Z,65.96
2023-02-15T19:52:58.548Z,66.18
2023-02-15T19:55:28.170Z,66.35
2023-02-15T19:57:56.872Z,66.03
2023-02-15T20:00:29.359Z,65.86
2023-02-15T20:02:59.400Z,66.20
2023-02-15T20:05:31.064Z,66.34
2023-02-15T20:07:58.661Z,66.37
2023-02-15T20:10:30.736Z,66.61
2023-02-15T20:12:58.989Z,66.59
2023-02-15T20:15:34.604Z,66.96
2023-02-15T20:18:04.315Z,66.63
2023-02-15T20:20:39.258Z,67.02
2023-02-15T20:23:07.309Z,66.94
2023-02-15T20:25:34.949Z,67.05
2023-02-15T20:28:02.711Z,67.05
2023-02-15T20:30:31.391Z,67.47
2023-02-15T20:32:59.273Z,67.41
2023-02-15T20:35:28.746Z,68.06
2023-02-15T20:37:57.326Z,68.32
2023-02-15T20:40:26.673Z,68.85
2023-02-15T20:42:54.574Z,69.42
2023-02-15T20:45:26.002Z,69.05
2023-02-15T20:47:58.493Z,69.11
2023-02-15T20:50:28.252Z,69.55
2023-02-15T20:52:57.820Z,69.36
2023-02-15T20:55:30.482Z,69.07
2023-02-15T20:57:59.734Z,69.62
2023-02-15T21:00:28.807Z,70.00
2023-02-15T21:03:01.176Z,69.73
2023-02-15T21:05:30.950Z,69.74
2023-02-15T21:08:12.167Z,69.73
2023-02-15T21:10:45.378Z,70.62
2023-02-15T21:13:39.808Z,70.47
2023-02-15T21:16:09.124Z,70.37
2023-02-15T21:18:39.020Z,71.30
2023-02-15T21:21:06.785Z,71.42
2023-02-15T21:23:42.017Z,70.91
2023-02-15T21:26:20.171Z,71.36
2023-02-15T21:28:49.194Z,70.97
2023-02-15T21:31:18.760Z,71.07
2023-02-15T21:33:46.738Z,71.11
2023-02-15T21:36:19.944Z,71.56
2023-02-15T21:38:47.645Z,71.17
2023-02-15T21:41:39.038Z,71.07
2023-02-15T21:44:42.086Z,70.16
2023-02-15T21:47:42.482Z,70.27
2023-02-15T21:50:33.873Z,69.46
2023-02-15T21:53:01.585Z,69.06
2023-02-15T21:55:29.354Z,69.64
2023-02-15T21:57:57.156Z,69.30
2023-02-15T22:00:25.681Z,69.60
2023-02-15T22:02:54.984Z,70.45
2023-02-15T22:05:33.491Z,70.17
2023-02-15T22:08:01.300Z,69.78
2023-02-15T22:10:32.980Z,69.81
2023-02-15T22:13:01.686Z,69.75
2023-02-15T22:15:36.632Z,69.52
2023-02-15T22:18:04.722Z,69.30
2023-02-15T22:20:32.693Z,68.43
2023-02-15T22:23:00.496Z,68.73
2023-02-15T22:25:28.443Z,69.15
2023-02-15T22:27:59.074Z,69.01
2023-02-15T22:30:29.265Z,69.03
2023-02-15T22:32:57.460Z,68.83
2023-02-15T22:35:34.432Z,68.94
2023-02-15T22:38:02.197Z,68.98
2023-02-15T22:40:32.039Z,69.16
2023-02-15T22:43:01.017Z,69.16
2023-02-15T22:45:29.132Z,69.49
2023-02-15T22:47:57.796Z,70.29
2023-02-15T22:50:27.547Z,69.66
2023-02-15T22:52:55.221Z,69.92
2023-02-15T22:55:27.983Z,69.17
2023-02-15T22:57:55.803Z,69.26
2023-02-15T23:00:25.869Z,69.76
2023-02-15T23:02:56.634Z,69.34
2023-02-15T23:05:33.728Z,70.10
2023-02-15T23:08:11.705Z,69.38
2023-02-15T23:10:39.752Z,70.27
2023-02-15T23:13:25.987Z,71.09
2023-02-15T23:15:58.858Z,71.29
2023-02-15T23:18:38.286Z,71.01
2023-02-15T23:21:31.303Z,71.68
2023-02-15T23:24:19.083Z,71.31
2023-02-15T23:26:47.634Z,71.74
2023-02-15T23:29:17.747Z,72.46
2023-02-15T23:31:47.202Z,71.68
2023-02-15T23:34:29.476Z,72.41
2023-02-15T23:36:57.365Z,72.65
2023-02-15T23:39:46.273Z,72.64
2023-02-15T23:42:21.796Z,72.90
2023-02-15T23:44:51.075Z,72.21
2023-02-15T23:47:19.853Z,72.42
2023-02-15T23:49:47.532Z,72.66
2023-02-15T23:52:15.211Z,72.74
2023-02-15T23:54:43.487Z,74.25
2023-02-15T23:57:11.331Z,74.43
2023-02-15T23:59:39.912Z,74.21
